sensor_id;sensor_type;location;lat;lon;timestamp;P1;durP1;ratioP1;P2;durP2;ratioP2
28431;SDS011;15664;51.302;7.744;2022-09-23T00:01:31;5.93;;;2.00;;
28431;SDS011;15664;51.302;7.744;2022-09-23T00:03:57;4.13;;;1.80;;
28431;SDS011;15664;51.302;7.744;2022-09-23T00:06:23;4.55;;;1.80;;
28431;SDS011;15664;51.302;7.744;2022-09-23T00:08:49;4.28;;;1.85;;
28431;SDS011;15664;51.302;7.744;2022-09-23T00:11:17;5.15;;;1.88;;
28431;SDS011;15664;51.302;7.744;2022-09-23T00:13:47;5.18;;;1.90;;
28431;SDS011;15664;51.302;7.744;2022-09-23T00:16:15;5.93;;;1.70;;
28431;SDS011;15664;51.302;7.744;2022-09-23T00:18:43;6.78;;;2.00;;
28431;SDS011;15664;51.302;7.744;2022-09-23T00:21:10;6.30;;;2.13;;
28431;SDS011;15664;51.302;7.744;2022-09-23T00:23:37;6.40;;;2.10;;
28431;SDS011;15664;51.302;7.744;2022-09-23T00:26:05;4.40;;;1.80;;
28431;SDS011;15664;51.302;7.744;2022-09-23T00:28:32;4.80;;;2.03;;
28431;SDS011;15664;51.302;7.744;2022-09-23T00:31:04;3.73;;;1.80;;
28431;SDS011;15664;51.302;7.744;2022-09-23T00:33:34;4.60;;;1.77;;
28431;SDS011;15664;51.302;7.744;2022-09-23T00:36:00;4.18;;;1.80;;
28431;SDS011;15664;51.302;7.744;2022-09-23T00:38:26;4.30;;;1.70;;
28431;SDS011;15664;51.302;7.744;2022-09-23T00:40:52;5.72;;;1.80;;
28431;SDS011;15664;51.302;7.744;2022-09-23T00:43:17;4.53;;;2.17;;
28431;SDS011;15664;51.302;7.744;2022-09-23T00:45:44;4.47;;;2.00;;
28431;SDS011;15664;51.302;7.744;2022-09-23T00:48:13;5.90;;;2.05;;
28431;SDS011;15664;51.302;7.744;2022-09-23T00:50:44;3.80;;;2.00;;
28431;SDS011;15664;51.302;7.744;2022-09-23T00:53:15;5.10;;;2.17;;
28431;SDS011;15664;51.302;7.744;2022-09-23T00:55:47;6.67;;;1.93;;
28431;SDS011;15664;51.302;7.744;2022-09-23T00:58:16;5.05;;;2.08;;
28431;SDS011;15664;51.302;7.744;2022-09-23T01:00:45;5.13;;;2.10;;
28431;SDS011;15664;51.302;7.744;2022-09-23T01:03:11;2.97;;;1.80;;
28431;SDS011;15664;51.302;7.744;2022-09-23T01:05:37;3.92;;;1.95;;
28431;SDS011;15664;51.302;7.744;2022-09-23T01:08:04;4.07;;;1.90;;
28431;SDS011;15664;51.302;7.744;2022-09-23T01:13:35;4.82;;;2.00;;
28431;SDS011;15664;51.302;7.744;2022-09-23T01:16:08;4.23;;;1.93;;
28431;SDS011;15664;51.302;7.744;2022-09-23T01:18:42;4.53;;;1.92;;
28431;SDS011;15664;51.302;7.744;2022-09-23T01:32:54;5.50;;;1.77;;
28431;SDS011;15664;51.302;7.744;2022-09-23T01:35:29;3.88;;;1.58;;
28431;SDS011;15664;51.302;7.744;2022-09-23T01:40:51;5.47;;;1.73;;
28431;SDS011;15664;51.302;7.744;2022-09-23T01:46:18;4.88;;;2.00;;
28431;SDS011;15664;51.302;7.744;2022-09-23T01:48:58;4.28;;;1.77;;
28431;SDS011;15664;51.302;7.744;2022-09-23T01:51:32;4.50;;;1.95;;
28431;SDS011;15664;51.302;7.744;2022-09-23T01:54:08;4.40;;;1.80;;
28431;SDS011;15664;51.302;7.744;2022-09-23T01:56:50;4.30;;;1.90;;
28431;SDS011;15664;51.302;7.744;2022-09-23T02:10:04;3.60;;;1.75;;
28431;SDS011;15664;51.302;7.744;2022-09-23T02:12:35;4.03;;;1.80;;
28431;SDS011;15664;51.302;7.744;2022-09-23T02:15:08;4.10;;;2.22;;
28431;SDS011;15664;51.302;7.744;2022-09-23T02:17:45;5.63;;;2.30;;
28431;SDS011;15664;51.302;7.744;2022-09-23T02:20:17;4.07;;;1.80;;
28431;SDS011;15664;51.302;7.744;2022-09-23T02:22:53;6.00;;;2.20;;
28431;SDS011;15664;51.302;7.744;2022-09-23T02:25:27;4.93;;;2.10;;
28431;SDS011;15664;51.302;7.744;2022-09-23T02:30:42;5.00;;;2.00;;
28431;SDS011;15664;51.302;7.744;2022-09-23T02:33:20;4.77;;;2.00;;
28431;SDS011;15664;51.302;7.744;2022-09-23T02:35:55;3.97;;;1.90;;
28431;SDS011;15664;51.302;7.744;2022-09-23T02:41:10;4.10;;;1.92;;
28431;SDS011;15664;51.302;7.744;2022-09-23T02:46:10;6.13;;;2.10;;
28431;SDS011;15664;51.302;7.744;2022-09-23T02:51:05;5.70;;;2.20;;
28431;SDS011;15664;51.302;7.744;2022-09-23T02:53:31;6.53;;;1.93;;
28431;SDS011;15664;51.302;7.744;2022-09-23T02:56:00;5.45;;;2.22;;
28431;SDS011;15664;51.302;7.744;2022-09-23T02:58:26;4.97;;;2.33;;
28431;SDS011;15664;51.302;7.744;2022-09-23T03:01:55;8.45;;;2.65;;
28431;SDS011;15664;51.302;7.744;2022-09-23T03:06:50;4.87;;;2.30;;
28431;SDS011;15664;51.302;7.744;2022-09-23T03:09:31;5.40;;;2.28;;
28431;SDS011;15664;51.302;7.744;2022-09-23T03:12:11;5.22;;;2.40;;
28431;SDS011;15664;51.302;7.744;2022-09-23T03:14:49;5.18;;;2.28;;
28431;SDS011;15664;51.302;7.744;2022-09-23T03:17:28;5.15;;;2.00;;
28431;SDS011;15664;51.302;7.744;2022-09-23T03:20:04;5.97;;;2.10;;
28431;SDS011;15664;51.302;7.744;2022-09-23T03:22:42;7.85;;;2.38;;
28431;SDS011;15664;51.302;7.744;2022-09-23T03:25:12;4.30;;;2.17;;
28431;SDS011;15664;51.302;7.744;2022-09-23T03:27:45;4.75;;;2.25;;
28431;SDS011;15664;51.302;7.744;2022-09-23T03:30:10;4.00;;;2.10;;
28431;SDS011;15664;51.302;7.744;2022-09-23T03:32:38;5.78;;;2.30;;
28431;SDS011;15664;51.302;7.744;2022-09-23T03:35:07;8.30;;;4.23;;
28431;SDS011;15664;51.302;7.744;2022-09-23T03:42:46;5.70;;;2.40;;
28431;SDS011;15664;51.302;7.744;2022-09-23T03:45:18;7.37;;;2.53;;
28431;SDS011;15664;51.302;7.744;2022-09-23T03:47:47;6.13;;;2.70;;
28431;SDS011;15664;51.302;7.744;2022-09-23T03:50:13;5.07;;;2.70;;
28431;SDS011;15664;51.302;7.744;2022-09-23T03:52:41;5.78;;;2.08;;
28431;SDS011;15664;51.302;7.744;2022-09-23T03:55:07;5.47;;;2.40;;
28431;SDS011;15664;51.302;7.744;2022-09-23T03:57:33;5.93;;;2.50;;
28431;SDS011;15664;51.302;7.744;2022-09-23T03:59:59;4.67;;;2.47;;
28431;SDS011;15664;51.302;7.744;2022-09-23T04:02:24;4.10;;;2.07;;
28431;SDS011;15664;51.302;7.744;2022-09-23T04:04:50;7.75;;;2.28;;
28431;SDS011;15664;51.302;7.744;2022-09-23T04:07:16;5.57;;;2.37;;
28431;SDS011;15664;51.302;7.744;2022-09-23T04:09:41;6.72;;;2.47;;
28431;SDS011;15664;51.302;7.744;2022-09-23T04:12:07;13.30;;;2.67;;
28431;SDS011;15664;51.302;7.744;2022-09-23T04:14:37;8.40;;;2.70;;
28431;SDS011;15664;51.302;7.744;2022-09-23T04:17:03;7.07;;;2.43;;
28431;SDS011;15664;51.302;7.744;2022-09-23T04:19:28;6.37;;;2.73;;
28431;SDS011;15664;51.302;7.744;2022-09-23T04:21:53;6.63;;;2.60;;
28431;SDS011;15664;51.302;7.744;2022-09-23T04:24:19;8.38;;;2.58;;
28431;SDS011;15664;51.302;7.744;2022-09-23T04:26:44;7.43;;;2.33;;
28431;SDS011;15664;51.302;7.744;2022-09-23T04:29:10;6.50;;;2.43;;
28431;SDS011;15664;51.302;7.744;2022-09-23T04:31:36;4.78;;;2.20;;
28431;SDS011;15664;51.302;7.744;2022-09-23T04:34:02;7.88;;;2.13;;
28431;SDS011;15664;51.302;7.744;2022-09-23T04:36:27;5.30;;;2.37;;
28431;SDS011;15664;51.302;7.744;2022-09-23T04:38:56;6.53;;;2.47;;
28431;SDS011;15664;51.302;7.744;2022-09-23T04:41:21;5.53;;;2.47;;
28431;SDS011;15664;51.302;7.744;2022-09-23T04:43:46;6.10;;;2.55;;
28431;SDS011;15664;51.302;7.744;2022-09-23T04:46:13;5.13;;;2.40;;
28431;SDS011;15664;51.302;7.744;2022-09-23T04:48:39;5.25;;;2.17;;
28431;SDS011;15664;51.302;7.744;2022-09-23T04:51:07;5.87;;;2.50;;
28431;SDS011;15664;51.302;7.744;2022-09-23T04:53:44;9.32;;;2.85;;
28431;SDS011;15664;51.302;7.744;2022-09-23T04:56:17;10.00;;;3.35;;
28431;SDS011;15664;51.302;7.744;2022-09-23T04:58:48;7.22;;;2.83;;
28431;SDS011;15664;51.302;7.744;2022-09-23T05:01:14;6.82;;;3.20;;
28431;SDS011;15664;51.302;7.744;2022-09-23T05:03:52;5.93;;;3.10;;
28431;SDS011;15664;51.302;7.744;2022-09-23T05:06:20;6.18;;;2.78;;
28431;SDS011;15664;51.302;7.744;2022-09-23T05:08:47;8.15;;;3.78;;
28431;SDS011;15664;51.302;7.744;2022-09-23T05:11:18;7.38;;;3.38;;
28431;SDS011;15664;51.302;7.744;2022-09-23T05:13:44;8.15;;;3.42;;
28431;SDS011;15664;51.302;7.744;2022-09-23T05:16:11;7.27;;;2.57;;
28431;SDS011;15664;51.302;7.744;2022-09-23T05:18:38;7.40;;;3.08;;
28431;SDS011;15664;51.302;7.744;2022-09-23T05:21:07;7.47;;;3.20;;
28431;SDS011;15664;51.302;7.744;2022-09-23T05:23:36;6.77;;;3.00;;
28431;SDS011;15664;51.302;7.744;2022-09-23T05:26:03;6.03;;;2.90;;
28431;SDS011;15664;51.302;7.744;2022-09-23T05:28:31;5.82;;;2.70;;
28431;SDS011;15664;51.302;7.744;2022-09-23T05:31:07;7.65;;;3.20;;
28431;SDS011;15664;51.302;7.744;2022-09-23T05:33:39;6.43;;;3.20;;
28431;SDS011;15664;51.302;7.744;2022-09-23T05:36:05;5.75;;;2.67;;
28431;SDS011;15664;51.302;7.744;2022-09-23T05:38:31;7.20;;;2.70;;
28431;SDS011;15664;51.302;7.744;2022-09-23T05:40:57;6.38;;;2.97;;
28431;SDS011;15664;51.302;7.744;2022-09-23T05:43:31;6.30;;;3.13;;
28431;SDS011;15664;51.302;7.744;2022-09-23T05:46:01;5.20;;;2.60;;
28431;SDS011;15664;51.302;7.744;2022-09-23T05:48:37;5.90;;;2.60;;
28431;SDS011;15664;51.302;7.744;2022-09-23T05:51:04;6.93;;;2.85;;
28431;SDS011;15664;51.302;7.744;2022-09-23T05:53:35;6.05;;;2.78;;
28431;SDS011;15664;51.302;7.744;2022-09-23T05:56:01;5.32;;;2.60;;
28431;SDS011;15664;51.302;7.744;2022-09-23T05:58:27;5.87;;;2.83;;
28431;SDS011;15664;51.302;7.744;2022-09-23T06:00:52;6.15;;;2.83;;
28431;SDS011;15664;51.302;7.744;2022-09-23T06:03:21;5.93;;;2.70;;
28431;SDS011;15664;51.302;7.744;2022-09-23T06:05:47;7.57;;;2.75;;
28431;SDS011;15664;51.302;7.744;2022-09-23T06:08:16;6.65;;;3.05;;
28431;SDS011;15664;51.302;7.744;2022-09-23T06:10:41;6.67;;;3.07;;
28431;SDS011;15664;51.302;7.744;2022-09-23T06:13:08;6.90;;;3.22;;
28431;SDS011;15664;51.302;7.744;2022-09-23T06:15:34;10.60;;;5.23;;
28431;SDS011;15664;51.302;7.744;2022-09-23T06:18:00;9.75;;;4.55;;
28431;SDS011;15664;51.302;7.744;2022-09-23T06:20:26;9.90;;;4.65;;
28431;SDS011;15664;51.302;7.744;2022-09-23T06:22:52;7.73;;;3.50;;
28431;SDS011;15664;51.302;7.744;2022-09-23T06:25:17;6.77;;;3.17;;
28431;SDS011;15664;51.302;7.744;2022-09-23T06:27:43;6.60;;;3.10;;
28431;SDS011;15664;51.302;7.744;2022-09-23T06:30:18;10.05;;;3.70;;
28431;SDS011;15664;51.302;7.744;2022-09-23T06:32:46;11.97;;;5.87;;
28431;SDS011;15664;51.302;7.744;2022-09-23T06:35:14;17.25;;;8.75;;
28431;SDS011;15664;51.302;7.744;2022-09-23T06:37:39;13.93;;;6.87;;
28431;SDS011;15664;51.302;7.744;2022-09-23T06:40:04;9.10;;;4.37;;
28431;SDS011;15664;51.302;7.744;2022-09-23T06:42:30;10.30;;;5.53;;
28431;SDS011;15664;51.302;7.744;2022-09-23T06:44:55;8.93;;;3.93;;
28431;SDS011;15664;51.302;7.744;2022-09-23T06:47:20;5.78;;;2.60;;
28431;SDS011;15664;51.302;7.744;2022-09-23T06:49:46;6.85;;;2.72;;
28431;SDS011;15664;51.302;7.744;2022-09-23T06:52:12;6.90;;;2.73;;
28431;SDS011;15664;51.302;7.744;2022-09-23T06:54:37;4.72;;;2.30;;
28431;SDS011;15664;51.302;7.744;2022-09-23T06:57:02;7.15;;;2.42;;
28431;SDS011;15664;51.302;7.744;2022-09-23T06:59:28;6.53;;;3.60;;
28431;SDS011;15664;51.302;7.744;2022-09-23T07:01:53;5.70;;;2.90;;
28431;SDS011;15664;51.302;7.744;2022-09-23T07:04:18;9.30;;;3.97;;
28431;SDS011;15664;51.302;7.744;2022-09-23T07:06:44;10.13;;;3.90;;
28431;SDS011;15664;51.302;7.744;2022-09-23T07:09:09;5.47;;;2.67;;
28431;SDS011;15664;51.302;7.744;2022-09-23T07:11:35;4.90;;;2.47;;
28431;SDS011;15664;51.302;7.744;2022-09-23T07:14:01;9.35;;;4.95;;
28431;SDS011;15664;51.302;7.744;2022-09-23T07:16:27;8.73;;;4.85;;
28431;SDS011;15664;51.302;7.744;2022-09-23T07:18:52;6.90;;;2.67;;
28431;SDS011;15664;51.302;7.744;2022-09-23T07:21:18;8.37;;;4.07;;
28431;SDS011;15664;51.302;7.744;2022-09-23T07:23:45;6.53;;;2.90;;
28431;SDS011;15664;51.302;7.744;2022-09-23T07:26:15;4.55;;;2.40;;
28431;SDS011;15664;51.302;7.744;2022-09-23T07:28:42;5.37;;;2.50;;
28431;SDS011;15664;51.302;7.744;2022-09-23T07:31:08;6.90;;;2.60;;
28431;SDS011;15664;51.302;7.744;2022-09-23T07:33:35;6.10;;;2.72;;
28431;SDS011;15664;51.302;7.744;2022-09-23T07:36:03;4.55;;;2.40;;
28431;SDS011;15664;51.302;7.744;2022-09-23T07:38:29;5.03;;;2.67;;
28431;SDS011;15664;51.302;7.744;2022-09-23T07:41:05;5.20;;;2.65;;
28431;SDS011;15664;51.302;7.744;2022-09-23T07:43:33;6.60;;;2.50;;
28431;SDS011;15664;51.302;7.744;2022-09-23T07:46:09;11.32;;;2.90;;
28431;SDS011;15664;51.302;7.744;2022-09-23T07:48:38;4.35;;;2.40;;
28431;SDS011;15664;51.302;7.744;2022-09-23T07:51:11;5.17;;;2.30;;
28431;SDS011;15664;51.302;7.744;2022-09-23T07:53:41;6.18;;;2.78;;
28431;SDS011;15664;51.302;7.744;2022-09-23T07:56:12;4.47;;;2.20;;
28431;SDS011;15664;51.302;7.744;2022-09-23T07:58:37;6.70;;;2.20;;
28431;SDS011;15664;51.302;7.744;2022-09-23T08:01:03;5.60;;;2.43;;
28431;SDS011;15664;51.302;7.744;2022-09-23T08:03:31;4.40;;;2.33;;
28431;SDS011;15664;51.302;7.744;2022-09-23T08:06:03;4.80;;;2.17;;
28431;SDS011;15664;51.302;7.744;2022-09-23T08:08:29;5.10;;;2.50;;
28431;SDS011;15664;51.302;7.744;2022-09-23T08:11:04;6.23;;;2.67;;
28431;SDS011;15664;51.302;7.744;2022-09-23T08:13:31;5.53;;;2.05;;
28431;SDS011;15664;51.302;7.744;2022-09-23T08:15:57;6.28;;;2.45;;
28431;SDS011;15664;51.302;7.744;2022-09-23T08:18:22;5.93;;;2.57;;
28431;SDS011;15664;51.302;7.744;2022-09-23T08:20:48;5.93;;;2.40;;
28431;SDS011;15664;51.302;7.744;2022-09-23T08:23:14;5.07;;;2.30;;
28431;SDS011;15664;51.302;7.744;2022-09-23T08:25:41;6.32;;;3.35;;
28431;SDS011;15664;51.302;7.744;2022-09-23T08:28:10;4.70;;;2.67;;
28431;SDS011;15664;51.302;7.744;2022-09-23T08:30:37;6.18;;;2.75;;
28431;SDS011;15664;51.302;7.744;2022-09-23T08:33:03;5.63;;;2.00;;
28431;SDS011;15664;51.302;7.744;2022-09-23T08:35:28;5.10;;;2.07;;
28431;SDS011;15664;51.302;7.744;2022-09-23T08:37:54;6.05;;;3.28;;
28431;SDS011;15664;51.302;7.744;2022-09-23T08:40:19;4.07;;;1.97;;
28431;SDS011;15664;51.302;7.744;2022-09-23T08:42:44;4.40;;;2.37;;
28431;SDS011;15664;51.302;7.744;2022-09-23T08:45:18;4.70;;;2.67;;
28431;SDS011;15664;51.302;7.744;2022-09-23T08:50:56;5.28;;;2.30;;
28431;SDS011;15664;51.302;7.744;2022-09-23T08:53:33;4.97;;;2.25;;
28431;SDS011;15664;51.302;7.744;2022-09-23T08:56:21;4.15;;;1.90;;
28431;SDS011;15664;51.302;7.744;2022-09-23T09:01:59;7.37;;;2.10;;
28431;SDS011;15664;51.302;7.744;2022-09-23T09:07:02;4.00;;;2.30;;
28431;SDS011;15664;51.302;7.744;2022-09-23T09:09:41;6.43;;;2.70;;
28431;SDS011;15664;51.302;7.744;2022-09-23T09:15:15;6.30;;;3.50;;
28431;SDS011;15664;51.302;7.744;2022-09-23T09:17:49;4.97;;;2.07;;
28431;SDS011;15664;51.302;7.744;2022-09-23T09:28:19;6.22;;;2.55;;
28431;SDS011;15664;51.302;7.744;2022-09-23T09:30:52;5.27;;;2.43;;
28431;SDS011;15664;51.302;7.744;2022-09-23T09:33:26;4.10;;;2.10;;
28431;SDS011;15664;51.302;7.744;2022-09-23T09:38:37;4.95;;;2.03;;
28431;SDS011;15664;51.302;7.744;2022-09-23T09:41:15;6.07;;;2.50;;
28431;SDS011;15664;51.302;7.744;2022-09-23T09:43:43;6.30;;;2.60;;
28431;SDS011;15664;51.302;7.744;2022-09-23T09:46:25;4.57;;;2.13;;
28431;SDS011;15664;51.302;7.744;2022-09-23T09:49:09;4.75;;;2.50;;
28431;SDS011;15664;51.302;7.744;2022-09-23T09:51:40;5.50;;;2.20;;
28431;SDS011;15664;51.302;7.744;2022-09-23T09:57:02;4.47;;;2.03;;
28431;SDS011;15664;51.302;7.744;2022-09-23T09:59:29;4.60;;;2.30;;
28431;SDS011;15664;51.302;7.744;2022-09-23T10:02:41;4.90;;;2.13;;
28431;SDS011;15664;51.302;7.744;2022-09-23T10:05:00;4.45;;;2.13;;
28431;SDS011;15664;51.302;7.744;2022-09-23T10:07:30;6.23;;;2.40;;
28431;SDS011;15664;51.302;7.744;2022-09-23T10:09:57;4.78;;;2.20;;
28431;SDS011;15664;51.302;7.744;2022-09-23T10:12:45;4.72;;;2.15;;
28431;SDS011;15664;51.302;7.744;2022-09-23T10:15:26;5.07;;;2.10;;
28431;SDS011;15664;51.302;7.744;2022-09-23T10:18:10;5.55;;;2.20;;
28431;SDS011;15664;51.302;7.744;2022-09-23T10:20:50;6.10;;;2.20;;
28431;SDS011;15664;51.302;7.744;2022-09-23T10:23:20;4.68;;;2.30;;
28431;SDS011;15664;51.302;7.744;2022-09-23T10:25:55;5.00;;;2.50;;
28431;SDS011;15664;51.302;7.744;2022-09-23T10:28:29;8.07;;;2.10;;
28431;SDS011;15664;51.302;7.744;2022-09-23T10:31:24;4.88;;;2.40;;
28431;SDS011;15664;51.302;7.744;2022-09-23T10:33:55;5.10;;;2.70;;
28431;SDS011;15664;51.302;7.744;2022-09-23T10:36:25;4.88;;;2.20;;
28431;SDS011;15664;51.302;7.744;2022-09-23T10:39:03;4.55;;;2.33;;
28431;SDS011;15664;51.302;7.744;2022-09-23T10:41:50;4.60;;;2.17;;
28431;SDS011;15664;51.302;7.744;2022-09-23T10:48:14;7.63;;;3.25;;
28431;SDS011;15664;51.302;7.744;2022-09-23T10:50:46;4.70;;;2.30;;
28431;SDS011;15664;51.302;7.744;2022-09-23T10:53:17;5.35;;;2.40;;
28431;SDS011;15664;51.302;7.744;2022-09-23T10:56:00;4.53;;;1.80;;
28431;SDS011;15664;51.302;7.744;2022-09-23T11:03:47;7.10;;;2.50;;
28431;SDS011;15664;51.302;7.744;2022-09-23T11:11:53;6.37;;;2.83;;
28431;SDS011;15664;51.302;7.744;2022-09-23T11:17:13;4.63;;;2.23;;
28431;SDS011;15664;51.302;7.744;2022-09-23T11:19:49;4.45;;;1.80;;
28431;SDS011;15664;51.302;7.744;2022-09-23T11:28:28;3.90;;;1.92;;
28431;SDS011;15664;51.302;7.744;2022-09-23T11:36:36;4.63;;;2.00;;
28431;SDS011;15664;51.302;7.744;2022-09-23T11:39:11;6.88;;;2.17;;
28431;SDS011;15664;51.302;7.744;2022-09-23T11:41:41;5.68;;;2.03;;
28431;SDS011;15664;51.302;7.744;2022-09-23T11:47:26;5.25;;;1.88;;
28431;SDS011;15664;51.302;7.744;2022-09-23T11:52:50;3.70;;;1.60;;
28431;SDS011;15664;51.302;7.744;2022-09-23T11:55:39;3.53;;;1.58;;
28431;SDS011;15664;51.302;7.744;2022-09-23T12:00:48;4.43;;;1.90;;
28431;SDS011;15664;51.302;7.744;2022-09-23T12:03:24;3.78;;;1.83;;
28431;SDS011;15664;51.302;7.744;2022-09-23T12:05:59;8.95;;;2.22;;
28431;SDS011;15664;51.302;7.744;2022-09-23T12:08:30;5.63;;;2.10;;
28431;SDS011;15664;51.302;7.744;2022-09-23T12:11:03;6.90;;;2.20;;
28431;SDS011;15664;51.302;7.744;2022-09-23T12:14:09;4.85;;;1.92;;
28431;SDS011;15664;51.302;7.744;2022-09-23T12:19:58;3.85;;;1.80;;
28431;SDS011;15664;51.302;7.744;2022-09-23T12:28:18;5.03;;;2.53;;
28431;SDS011;15664;51.302;7.744;2022-09-23T12:30:47;4.22;;;1.92;;
28431;SDS011;15664;51.302;7.744;2022-09-23T12:35:49;3.47;;;1.90;;
28431;SDS011;15664;51.302;7.744;2022-09-23T12:40:49;4.82;;;1.92;;
28431;SDS011;15664;51.302;7.744;2022-09-23T12:45:54;5.63;;;2.33;;
28431;SDS011;15664;51.302;7.744;2022-09-23T12:48:56;6.40;;;2.50;;
28431;SDS011;15664;51.302;7.744;2022-09-23T12:51:25;4.22;;;2.20;;
28431;SDS011;15664;51.302;7.744;2022-09-23T12:53:53;6.88;;;2.72;;
28431;SDS011;15664;51.302;7.744;2022-09-23T12:58:59;4.40;;;2.30;;
28431;SDS011;15664;51.302;7.744;2022-09-23T13:01:40;5.10;;;1.90;;
28431;SDS011;15664;51.302;7.744;2022-09-23T13:04:26;6.22;;;2.55;;
28431;SDS011;15664;51.302;7.744;2022-09-23T13:07:27;4.43;;;2.03;;
28431;SDS011;15664;51.302;7.744;2022-09-23T13:12:40;4.07;;;1.77;;
28431;SDS011;15664;51.302;7.744;2022-09-23T13:15:14;4.73;;;2.13;;
28431;SDS011;15664;51.302;7.744;2022-09-23T13:17:46;4.05;;;1.77;;
28431;SDS011;15664;51.302;7.744;2022-09-23T13:25:46;6.28;;;2.30;;
28431;SDS011;15664;51.302;7.744;2022-09-23T13:28:11;8.07;;;4.50;;
28431;SDS011;15664;51.302;7.744;2022-09-23T13:30:48;7.70;;;3.45;;
28431;SDS011;15664;51.302;7.744;2022-09-23T13:33:19;4.60;;;1.80;;
28431;SDS011;15664;51.302;7.744;2022-09-23T13:35:50;3.63;;;1.60;;
28431;SDS011;15664;51.302;7.744;2022-09-23T13:40:50;4.53;;;2.13;;
28431;SDS011;15664;51.302;7.744;2022-09-23T13:43:22;4.97;;;2.28;;
28431;SDS011;15664;51.302;7.744;2022-09-23T13:45:51;4.57;;;2.20;;
28431;SDS011;15664;51.302;7.744;2022-09-23T13:48:16;5.78;;;2.08;;
28431;SDS011;15664;51.302;7.744;2022-09-23T13:50:46;4.83;;;1.90;;
28431;SDS011;15664;51.302;7.744;2022-09-23T13:53:24;3.72;;;1.83;;
28431;SDS011;15664;51.302;7.744;2022-09-23T13:56:03;5.20;;;2.28;;
28431;SDS011;15664;51.302;7.744;2022-09-23T13:58:36;5.50;;;2.55;;
28431;SDS011;15664;51.302;7.744;2022-09-23T14:01:02;4.77;;;2.00;;
28431;SDS011;15664;51.302;7.744;2022-09-23T14:03:36;6.93;;;3.50;;
28431;SDS011;15664;51.302;7.744;2022-09-23T14:06:04;4.20;;;2.13;;
28431;SDS011;15664;51.302;7.744;2022-09-23T14:08:33;6.65;;;2.38;;
28431;SDS011;15664;51.302;7.744;2022-09-23T14:10:59;5.60;;;1.83;;
28431;SDS011;15664;51.302;7.744;2022-09-23T14:13:25;9.95;;;3.78;;
28431;SDS011;15664;51.302;7.744;2022-09-23T14:15:53;7.68;;;3.97;;
28431;SDS011;15664;51.302;7.744;2022-09-23T14:18:34;10.30;;;5.63;;
28431;SDS011;15664;51.302;7.744;2022-09-23T14:21:02;11.73;;;6.40;;
28431;SDS011;15664;51.302;7.744;2022-09-23T14:23:28;8.55;;;4.28;;
28431;SDS011;15664;51.302;7.744;2022-09-23T14:25:53;4.87;;;2.00;;
28431;SDS011;15664;51.302;7.744;2022-09-23T14:28:21;6.22;;;2.63;;
28431;SDS011;15664;51.302;7.744;2022-09-23T14:30:53;4.43;;;2.10;;
28431;SDS011;15664;51.302;7.744;2022-09-23T14:33:22;4.40;;;2.10;;
28431;SDS011;15664;51.302;7.744;2022-09-23T14:35:51;6.30;;;2.50;;
28431;SDS011;15664;51.302;7.744;2022-09-23T14:38:22;8.23;;;3.67;;
28431;SDS011;15664;51.302;7.744;2022-09-23T14:41:12;6.22;;;2.17;;
28431;SDS011;15664;51.302;7.744;2022-09-23T14:46:28;9.30;;;5.30;;
28431;SDS011;15664;51.302;7.744;2022-09-23T14:51:30;14.13;;;6.97;;
28431;SDS011;15664;51.302;7.744;2022-09-23T14:56:59;10.63;;;4.50;;
28431;SDS011;15664;51.302;7.744;2022-09-23T14:59:32;5.65;;;2.50;;
28431;SDS011;15664;51.302;7.744;2022-09-23T15:01:59;4.85;;;2.30;;
28431;SDS011;15664;51.302;7.744;2022-09-23T15:06:55;5.72;;;2.70;;
28431;SDS011;15664;51.302;7.744;2022-09-23T15:09:25;5.00;;;2.72;;
28431;SDS011;15664;51.302;7.744;2022-09-23T15:11:56;4.88;;;2.35;;
28431;SDS011;15664;51.302;7.744;2022-09-23T15:14:35;9.63;;;3.60;;
28431;SDS011;15664;51.302;7.744;2022-09-23T15:17:04;6.00;;;2.57;;
28431;SDS011;15664;51.302;7.744;2022-09-23T15:19:37;4.60;;;2.40;;
28431;SDS011;15664;51.302;7.744;2022-09-23T15:22:05;9.77;;;4.07;;
28431;SDS011;15664;51.302;7.744;2022-09-23T15:24:36;5.38;;;2.60;;
28431;SDS011;15664;51.302;7.744;2022-09-23T15:27:18;6.82;;;2.65;;
28431;SDS011;15664;51.302;7.744;2022-09-23T15:29:51;5.53;;;2.20;;
28431;SDS011;15664;51.302;7.744;2022-09-23T15:32:17;4.55;;;2.13;;
28431;SDS011;15664;51.302;7.744;2022-09-23T15:34:42;6.90;;;2.30;;
28431;SDS011;15664;51.302;7.744;2022-09-23T15:37:09;3.80;;;2.00;;
28431;SDS011;15664;51.302;7.744;2022-09-23T15:39:36;4.65;;;2.00;;
28431;SDS011;15664;51.302;7.744;2022-09-23T15:42:02;4.85;;;2.17;;
28431;SDS011;15664;51.302;7.744;2022-09-23T15:44:27;5.53;;;2.53;;
28431;SDS011;15664;51.302;7.744;2022-09-23T15:46:54;7.37;;;3.20;;
28431;SDS011;15664;51.302;7.744;2022-09-23T15:49:26;6.93;;;2.70;;
28431;SDS011;15664;51.302;7.744;2022-09-23T15:51:59;5.75;;;2.30;;
28431;SDS011;15664;51.302;7.744;2022-09-23T15:54:25;4.28;;;2.00;;
28431;SDS011;15664;51.302;7.744;2022-09-23T15:56:51;4.47;;;2.00;;
28431;SDS011;15664;51.302;7.744;2022-09-23T15:59:17;4.40;;;2.07;;
28431;SDS011;15664;51.302;7.744;2022-09-23T16:01:43;7.45;;;2.53;;
28431;SDS011;15664;51.302;7.744;2022-09-23T16:04:10;6.90;;;2.37;;
28431;SDS011;15664;51.302;7.744;2022-09-23T16:06:35;5.72;;;2.58;;
28431;SDS011;15664;51.302;7.744;2022-09-23T16:09:01;8.25;;;2.67;;
28431;SDS011;15664;51.302;7.744;2022-09-23T16:11:27;6.97;;;2.50;;
28431;SDS011;15664;51.302;7.744;2022-09-23T16:13:55;4.80;;;2.00;;
28431;SDS011;15664;51.302;7.744;2022-09-23T16:16:27;4.40;;;2.20;;
28431;SDS011;15664;51.302;7.744;2022-09-23T16:18:52;4.50;;;1.70;;
28431;SDS011;15664;51.302;7.744;2022-09-23T16:21:19;6.43;;;1.92;;
28431;SDS011;15664;51.302;7.744;2022-09-23T16:23:48;4.30;;;1.77;;
28431;SDS011;15664;51.302;7.744;2022-09-23T16:26:16;4.60;;;2.10;;
28431;SDS011;15664;51.302;7.744;2022-09-23T16:28:44;4.77;;;2.00;;
28431;SDS011;15664;51.302;7.744;2022-09-23T16:31:11;9.68;;;2.60;;
28431;SDS011;15664;51.302;7.744;2022-09-23T16:33:39;5.25;;;2.50;;
28431;SDS011;15664;51.302;7.744;2022-09-23T16:36:05;7.72;;;2.53;;
28431;SDS011;15664;51.302;7.744;2022-09-23T16:38:45;6.57;;;2.60;;
28431;SDS011;15664;51.302;7.744;2022-09-23T16:41:12;5.23;;;2.07;;
28431;SDS011;15664;51.302;7.744;2022-09-23T16:43:38;4.90;;;2.05;;
28431;SDS011;15664;51.302;7.744;2022-09-23T16:46:07;3.57;;;1.60;;
28431;SDS011;15664;51.302;7.744;2022-09-23T16:48:36;7.00;;;2.53;;
28431;SDS011;15664;51.302;7.744;2022-09-23T16:51:04;5.10;;;2.33;;
28431;SDS011;15664;51.302;7.744;2022-09-23T16:53:30;9.15;;;4.82;;
28431;SDS011;15664;51.302;7.744;2022-09-23T16:55:55;9.50;;;4.53;;
28431;SDS011;15664;51.302;7.744;2022-09-23T16:58:23;11.77;;;6.32;;
28431;SDS011;15664;51.302;7.744;2022-09-23T17:00:55;10.17;;;6.33;;
28431;SDS011;15664;51.302;7.744;2022-09-23T17:03:39;8.87;;;4.50;;
28431;SDS011;15664;51.302;7.744;2022-09-23T17:06:05;8.32;;;3.63;;
28431;SDS011;15664;51.302;7.744;2022-09-23T17:08:31;9.37;;;3.60;;
28431;SDS011;15664;51.302;7.744;2022-09-23T17:10:57;9.50;;;3.83;;
28431;SDS011;15664;51.302;7.744;2022-09-23T17:13:24;4.82;;;2.28;;
28431;SDS011;15664;51.302;7.744;2022-09-23T17:15:51;4.57;;;2.40;;
28431;SDS011;15664;51.302;7.744;2022-09-23T17:18:17;5.20;;;2.43;;
28431;SDS011;15664;51.302;7.744;2022-09-23T17:20:54;4.13;;;2.42;;
28431;SDS011;15664;51.302;7.744;2022-09-23T17:23:20;7.50;;;2.58;;
28431;SDS011;15664;51.302;7.744;2022-09-23T17:25:46;13.33;;;5.27;;
28431;SDS011;15664;51.302;7.744;2022-09-23T17:28:12;18.92;;;6.32;;
28431;SDS011;15664;51.302;7.744;2022-09-23T17:30:37;28.03;;;10.30;;
28431;SDS011;15664;51.302;7.744;2022-09-23T17:33:03;25.27;;;8.27;;
28431;SDS011;15664;51.302;7.744;2022-09-23T17:35:28;14.20;;;5.73;;
28431;SDS011;15664;51.302;7.744;2022-09-23T17:37:53;10.33;;;4.00;;
28431;SDS011;15664;51.302;7.744;2022-09-23T17:40:19;6.78;;;3.35;;